sensor_id;sensor_type;location;lat;lon;timestamp;pressure;altitude;pressure_sealevel;temperature
45034;BMP280;30771;47.988;-4.186;2022-08-07T06:00:54;101392.16;;;15.62
45034;BMP280;30771;47.988;-4.186;2022-08-07T06:03:21;101392.94;;;15.69
45034;BMP280;30771;47.988;-4.186;2022-08-07T06:05:46;101388.81;;;15.79
45034;BMP280;30771;47.988;-4.186;2022-08-07T06:08:12;101394.28;;;15.84
45034;BMP280;30771;47.988;-4.186;2022-08-07T06:10:38;101389.50;;;15.93
45034;BMP280;30771;47.988;-4.186;2022-08-07T06:13:03;101395.59;;;16.00
45034;BMP280;30771;47.988;-4.186;2022-08-07T06:15:28;101395.53;;;16.06
45034;BMP280;30771;47.988;-4.186;2022-08-07T06:17:53;101400.25;;;16.11
45034;BMP280;30771;47.988;-4.186;2022-08-07T06:20:19;101398.53;;;16.16
45034;BMP280;30771;47.988;-4.186;2022-08-07T06:22:45;101396.44;;;16.25
45034;BMP280;30771;47.988;-4.186;2022-08-07T06:25:11;101404.13;;;16.33
45034;BMP280;30771;47.988;-4.186;2022-08-07T06:27:37;101406.50;;;16.41
45034;BMP280;30771;47.988;-4.186;2022-08-07T06:30:02;101406.84;;;16.51
45034;BMP280;30771;47.988;-4.186;2022-08-07T06:32:27;101403.91;;;16.59
45034;BMP280;30771;47.988;-4.186;2022-08-07T06:34:52;101405.03;;;16.69
45034;BMP280;30771;47.988;-4.186;2022-08-07T06:37:18;101413.53;;;16.78
45034;BMP280;30771;47.988;-4.186;2022-08-07T06:39:43;101415.47;;;16.89
45034;BMP280;30771;47.988;-4.186;2022-08-07T06:42:15;101415.53;;;17.01
45034;BMP280;30771;47.988;-4.186;2022-08-07T06:44:41;101415.63;;;17.12
45034;BMP280;30771;47.988;-4.186;2022-08-07T06:47:08;101424.13;;;17.21
45034;BMP280;30771;47.988;-4.186;2022-08-07T06:49:33;101422.22;;;17.28
45034;BMP280;30771;47.988;-4.186;2022-08-07T06:51:58;101416.91;;;17.39
45034;BMP280;30771;47.988;-4.186;2022-08-07T06:54:24;101420.22;;;17.53
45034;BMP280;30771;47.988;-4.186;2022-08-07T06:56:50;101417.81;;;17.63
45034;BMP280;30771;47.988;-4.186;2022-08-07T06:59:37;101423.00;;;17.76
45034;BMP280;30771;47.988;-4.186;2022-08-07T07:02:01;101418.63;;;17.93
45034;BMP280;30771;47.988;-4.186;2022-08-07T07:04:26;101419.00;;;18.08
45034;BMP280;30771;47.988;-4.186;2022-08-07T07:06:52;101426.31;;;18.24
45034;BMP280;30771;47.988;-4.186;2022-08-07T07:14:46;101422.78;;;18.65
45034;BMP280;30771;47.988;-4.186;2022-08-07T07:17:14;101426.78;;;18.79
45034;BMP280;30771;47.988;-4.186;2022-08-07T07:19:52;101433.50;;;18.93
45034;BMP280;30771;47.988;-4.186;2022-08-07T07:22:17;101437.78;;;19.05
45034;BMP280;30771;47.988;-4.186;2022-08-07T07:24:43;101434.03;;;19.18
45034;BMP280;30771;47.988;-4.186;2022-08-07T07:27:09;101444.47;;;19.31
45034;BMP280;30771;47.988;-4.186;2022-08-07T07:29:36;101441.72;;;19.42
45034;BMP280;30771;47.988;-4.186;2022-08-07T07:32:04;101441.66;;;19.54
45034;BMP280;30771;47.988;-4.186;2022-08-07T07:34:29;101444.41;;;19.70
45034;BMP280;30771;47.988;-4.186;2022-08-07T07:36:56;101441.41;;;19.83
45034;BMP280;30771;47.988;-4.186;2022-08-07T07:39:22;101442.16;;;19.96
45034;BMP280;30771;47.988;-4.186;2022-08-07T07:41:49;101442.88;;;20.08
45034;BMP280;30771;47.988;-4.186;2022-08-07T07:44:17;101439.16;;;20.25
45034;BMP280;30771;47.988;-4.186;2022-08-07T07:46:43;101443.69;;;20.41
45034;BMP280;30771;47.988;-4.186;2022-08-07T07:49:09;101444.69;;;20.57
45034;BMP280;30771;47.988;-4.186;2022-08-07T07:51:36;101445.19;;;20.70
45034;BMP280;30771;47.988;-4.186;2022-08-07T07:54:02;101448.53;;;20.82
45034;BMP280;30771;47.988;-4.186;2022-08-07T07:56:29;101447.78;;;20.87
45034;BMP280;30771;47.988;-4.186;2022-08-07T07:58:55;101439.81;;;20.92
45034;BMP280;30771;47.988;-4.186;2022-08-07T08:01:22;101434.88;;;21.05
45034;BMP280;30771;47.988;-4.186;2022-08-07T08:03:48;101432.94;;;21.22
45034;BMP280;30771;47.988;-4.186;2022-08-07T08:06:14;101442.25;;;21.41
45034;BMP280;30771;47.988;-4.186;2022-08-07T08:08:40;101434.41;;;21.61
45034;BMP280;30771;47.988;-4.186;2022-08-07T08:11:06;101442.81;;;21.70
45034;BMP280;30771;47.988;-4.186;2022-08-07T08:13:32;101446.59;;;21.79
45034;BMP280;30771;47.988;-4.186;2022-08-07T08:15:59;101443.47;;;21.87
45034;BMP280;30771;47.988;-4.186;2022-08-07T08:18:25;101450.50;;;21.98
45034;BMP280;30771;47.988;-4.186;2022-08-07T08:20:51;101447.59;;;22.00
45034;BMP280;30771;47.988;-4.186;2022-08-07T08:23:16;101449.75;;;21.98
45034;BMP280;30771;47.988;-4.186;2022-08-07T08:25:43;101448.66;;;21.99
45034;BMP280;30771;47.988;-4.186;2022-08-07T08:28:10;101446.00;;;22.04
45034;BMP280;30771;47.988;-4.186;2022-08-07T08:30:36;101444.97;;;22.10
45034;BMP280;30771;47.988;-4.186;2022-08-07T08:33:02;101439.94;;;22.18
45034;BMP280;30771;47.988;-4.186;2022-08-07T08:35:28;101443.47;;;22.24
45034;BMP280;30771;47.988;-4.186;2022-08-07T08:37:56;101439.03;;;22.39
45034;BMP280;30771;47.988;-4.186;2022-08-07T08:40:22;101437.75;;;22.52
45034;BMP280;30771;47.988;-4.186;2022-08-07T08:42:54;101441.06;;;22.69
45034;BMP280;30771;47.988;-4.186;2022-08-07T08:50:30;101434.97;;;22.93
45034;BMP280;30771;47.988;-4.186;2022-08-07T08:52:58;101428.53;;;23.14
45034;BMP280;30771;47.988;-4.186;2022-08-07T08:55:32;101430.75;;;23.27
45034;BMP280;30771;47.988;-4.186;2022-08-07T08:58:01;101429.94;;;23.37
45034;BMP280;30771;47.988;-4.186;2022-08-07T09:00:31;101432.06;;;23.40
45034;BMP280;30771;47.988;-4.186;2022-08-07T09:03:10;101443.91;;;23.29
45034;BMP280;30771;47.988;-4.186;2022-08-07T09:05:45;101433.97;;;23.34
45034;BMP280;30771;47.988;-4.186;2022-08-07T09:18:32;101424.72;;;24.26
45034;BMP280;30771;47.988;-4.186;2022-08-07T09:21:11;101429.06;;;24.27
45034;BMP280;30771;47.988;-4.186;2022-08-07T09:29:05;101432.56;;;24.22
45034;BMP280;30771;47.988;-4.186;2022-08-07T09:34:19;101420.16;;;24.26
45034;BMP280;30771;47.988;-4.186;2022-08-07T09:39:32;101419.81;;;24.43
45034;BMP280;30771;47.988;-4.186;2022-08-07T09:47:05;101414.59;;;24.76
45034;BMP280;30771;47.988;-4.186;2022-08-07T09:52:20;101407.78;;;24.84
45034;BMP280;30771;47.988;-4.186;2022-08-07T09:54:54;101410.66;;;24.97
45034;BMP280;30771;47.988;-4.186;2022-08-07T09:57:31;101419.53;;;24.98
45034;BMP280;30771;47.988;-4.186;2022-08-07T10:00:06;101410.94;;;24.96
45034;BMP280;30771;47.988;-4.186;2022-08-07T10:13:10;101411.06;;;25.19
45034;BMP280;30771;47.988;-4.186;2022-08-07T10:18:19;101394.56;;;25.54
45034;BMP280;30771;47.988;-4.186;2022-08-07T10:26:21;101393.06;;;25.95
45034;BMP280;30771;47.988;-4.186;2022-08-07T10:36:31;101388.91;;;26.03
45034;BMP280;30771;47.988;-4.186;2022-08-07T10:41:40;101377.28;;;26.26
45034;BMP280;30771;47.988;-4.186;2022-08-07T10:49:31;101375.03;;;26.33
45034;BMP280;30771;47.988;-4.186;2022-08-07T10:52:04;101366.28;;;26.41
45034;BMP280;30771;47.988;-4.186;2022-08-07T10:57:11;101365.06;;;26.52
45034;BMP280;30771;47.988;-4.186;2022-08-07T11:02:55;101356.78;;;26.43
45034;BMP280;30771;47.988;-4.186;2022-08-07T11:05:13;101354.94;;;26.57
45034;BMP280;30771;47.988;-4.186;2022-08-07T11:10:27;101360.22;;;26.49
45034;BMP280;30771;47.988;-4.186;2022-08-07T11:13:06;101356.72;;;26.48
45034;BMP280;30771;47.988;-4.186;2022-08-07T11:15:35;101353.78;;;26.63
45034;BMP280;30771;47.988;-4.186;2022-08-07T11:18:19;101358.19;;;26.59
45034;BMP280;30771;47.988;-4.186;2022-08-07T11:20:50;101346.13;;;26.52
45034;BMP280;30771;47.988;-4.186;2022-08-07T11:23:17;101342.41;;;26.67
45034;BMP280;30771;47.988;-4.186;2022-08-07T11:26:32;101338.75;;;26.76
45034;BMP280;30771;47.988;-4.186;2022-08-07T11:28:50;101322.88;;;26.88
45034;BMP280;30771;47.988;-4.186;2022-08-07T11:36:57;101331.97;;;27.24
45034;BMP280;30771;47.988;-4.186;2022-08-07T11:44:42;101317.06;;;27.54
45034;BMP280;30771;47.988;-4.186;2022-08-07T11:49:53;101309.06;;;27.62
45034;BMP280;30771;47.988;-4.186;2022-08-07T11:52:25;101310.44;;;27.73
45034;BMP280;30771;47.988;-4.186;2022-08-07T11:57:28;101308.44;;;27.65
45034;BMP280;30771;47.988;-4.186;2022-08-07T12:05:13;101310.72;;;27.58
45034;BMP280;30771;47.988;-4.186;2022-08-07T12:07:43;101312.16;;;27.56
45034;BMP280;30771;47.988;-4.186;2022-08-07T12:10:21;101314.97;;;27.64
45034;BMP280;30771;47.988;-4.186;2022-08-07T12:12:58;101294.19;;;27.73
45034;BMP280;30771;47.988;-4.186;2022-08-07T12:15:26;101297.81;;;27.69
45034;BMP280;30771;47.988;-4.186;2022-08-07T12:17:57;101309.25;;;27.66
45034;BMP280;30771;47.988;-4.186;2022-08-07T12:23:13;101309.25;;;27.66
45034;BMP280;30771;47.988;-4.186;2022-08-07T12:26:02;101294.97;;;27.60
45034;BMP280;30771;47.988;-4.186;2022-08-07T12:31:56;101293.31;;;27.51
45034;BMP280;30771;47.988;-4.186;2022-08-07T12:33:59;101287.06;;;27.64
45034;BMP280;30771;47.988;-4.186;2022-08-07T12:36:25;101291.69;;;27.63
45034;BMP280;30771;47.988;-4.186;2022-08-07T12:38:52;101288.47;;;27.75
45034;BMP280;30771;47.988;-4.186;2022-08-07T12:41:18;101271.72;;;27.86
45034;BMP280;30771;47.988;-4.186;2022-08-07T12:43:45;101278.59;;;28.06
45034;BMP280;30771;47.988;-4.186;2022-08-07T12:51:23;101257.94;;;28.32
45034;BMP280;30771;47.988;-4.186;2022-08-07T12:54:00;101269.78;;;28.44
45034;BMP280;30771;47.988;-4.186;2022-08-07T12:56:35;101256.31;;;28.31
45034;BMP280;30771;47.988;-4.186;2022-08-07T12:59:02;101264.19;;;28.19
45034;BMP280;30771;47.988;-4.186;2022-08-07T13:04:56;101251.81;;;28.26
45034;BMP280;30771;47.988;-4.186;2022-08-07T13:12:33;101248.69;;;28.55
45034;BMP280;30771;47.988;-4.186;2022-08-07T13:20:08;101255.25;;;28.62
45034;BMP280;30771;47.988;-4.186;2022-08-07T13:25:14;101236.34;;;28.49
45034;BMP280;30771;47.988;-4.186;2022-08-07T13:27:49;101235.06;;;28.46
45034;BMP280;30771;47.988;-4.186;2022-08-07T13:30:15;101226.94;;;28.46
45034;BMP280;30771;47.988;-4.186;2022-08-07T13:33:03;101231.41;;;28.51
45034;BMP280;30771;47.988;-4.186;2022-08-07T13:35:35;101241.78;;;28.49
45034;BMP280;30771;47.988;-4.186;2022-08-07T13:38:12;101232.06;;;28.48
45034;BMP280;30771;47.988;-4.186;2022-08-07T13:43:17;101220.56;;;28.51
45034;BMP280;30771;47.988;-4.186;2022-08-07T13:45:44;101220.41;;;28.47
45034;BMP280;30771;47.988;-4.186;2022-08-07T13:48:10;101236.66;;;28.47
45034;BMP280;30771;47.988;-4.186;2022-08-07T13:50:37;101226.31;;;28.49
45034;BMP280;30771;47.988;-4.186;2022-08-07T13:53:03;101222.66;;;28.54
45034;BMP280;30771;47.988;-4.186;2022-08-07T13:55:29;101211.09;;;28.62
45034;BMP280;30771;47.988;-4.186;2022-08-07T13:57:58;101213.00;;;28.61
45034;BMP280;30771;47.988;-4.186;2022-08-07T14:00:34;101218.63;;;28.65
45034;BMP280;30771;47.988;-4.186;2022-08-07T14:02:59;101221.00;;;28.66
45034;BMP280;30771;47.988;-4.186;2022-08-07T14:05:25;101196.13;;;28.73
45034;BMP280;30771;47.988;-4.186;2022-08-07T14:07:50;101210.81;;;28.72
45034;BMP280;30771;47.988;-4.186;2022-08-07T14:10:15;101219.09;;;28.67
45034;BMP280;30771;47.988;-4.186;2022-08-07T14:12:43;101200.38;;;28.65
45034;BMP280;30771;47.988;-4.186;2022-08-07T14:15:09;101206.91;;;28.56
45034;BMP280;30771;47.988;-4.186;2022-08-07T14:17:40;101203.81;;;28.49
45034;BMP280;30771;47.988;-4.186;2022-08-07T14:20:14;101209.25;;;28.49
45034;BMP280;30771;47.988;-4.186;2022-08-07T14:22:40;101201.31;;;28.52
45034;BMP280;30771;47.988;-4.186;2022-08-07T14:25:07;101213.22;;;28.43
45034;BMP280;30771;47.988;-4.186;2022-08-07T14:27:35;101215.66;;;28.31
45034;BMP280;30771;47.988;-4.186;2022-08-07T14:30:06;101207.63;;;28.17
45034;BMP280;30771;47.988;-4.186;2022-08-07T14:32:41;101215.81;;;28.26
45034;BMP280;30771;47.988;-4.186;2022-08-07T14:35:09;101203.13;;;28.35
45034;BMP280;30771;47.988;-4.186;2022-08-07T14:37:35;101205.72;;;28.48
45034;BMP280;30771;47.988;-4.186;2022-08-07T14:40:01;101212.09;;;28.44
45034;BMP280;30771;47.988;-4.186;2022-08-07T14:42:27;101205.84;;;28.35
45034;BMP280;30771;47.988;-4.186;2022-08-07T14:44:54;101197.84;;;28.38
45034;BMP280;30771;47.988;-4.186;2022-08-07T14:47:21;101192.00;;;28.45
45034;BMP280;30771;47.988;-4.186;2022-08-07T14:49:47;101188.38;;;28.49
45034;BMP280;30771;47.988;-4.186;2022-08-07T14:52:13;101192.38;;;28.52
45034;BMP280;30771;47.988;-4.186;2022-08-07T14:54:39;101178.34;;;28.50
45034;BMP280;30771;47.988;-4.186;2022-08-07T14:57:05;101164.31;;;28.56
45034;BMP280;30771;47.988;-4.186;2022-08-07T14:59:34;101158.44;;;28.63
45034;BMP280;30771;47.988;-4.186;2022-08-07T15:02:10;101156.19;;;28.56
45034;BMP280;30771;47.988;-4.186;2022-08-07T15:04:39;101171.63;;;28.47
45034;BMP280;30771;47.988;-4.186;2022-08-07T15:07:05;101164.44;;;28.43
45034;BMP280;30771;47.988;-4.186;2022-08-07T15:09:31;101149.63;;;28.49
45034;BMP280;30771;47.988;-4.186;2022-08-07T15:12:00;101144.19;;;28.49
45034;BMP280;30771;47.988;-4.186;2022-08-07T15:14:29;101144.06;;;28.54
45034;BMP280;30771;47.988;-4.186;2022-08-07T15:17:02;101146.97;;;28.57
45034;BMP280;30771;47.988;-4.186;2022-08-07T15:19:32;101160.06;;;28.64
45034;BMP280;30771;47.988;-4.186;2022-08-07T15:21:58;101156.06;;;28.61
45034;BMP280;30771;47.988;-4.186;2022-08-07T15:24:24;101158.56;;;28.49
45034;BMP280;30771;47.988;-4.186;2022-08-07T15:26:57;101156.09;;;28.39
45034;BMP280;30771;47.988;-4.186;2022-08-07T15:29:23;101152.63;;;28.47
45034;BMP280;30771;47.988;-4.186;2022-08-07T15:31:56;101142.78;;;28.51
45034;BMP280;30771;47.988;-4.186;2022-08-07T15:34:24;101156.66;;;28.50
45034;BMP280;30771;47.988;-4.186;2022-08-07T15:36:49;101148.03;;;28.48
45034;BMP280;30771;47.988;-4.186;2022-08-07T15:39:15;101145.81;;;28.50
45034;BMP280;30771;47.988;-4.186;2022-08-07T15:41:59;101133.03;;;28.50
45034;BMP280;30771;47.988;-4.186;2022-08-07T15:44:26;101129.69;;;28.53
45034;BMP280;30771;47.988;-4.186;2022-08-07T15:46:55;101129.56;;;28.58
45034;BMP280;30771;47.988;-4.186;2022-08-07T15:49:25;101138.03;;;28.65
45034;BMP280;30771;47.988;-4.186;2022-08-07T15:51:51;101136.28;;;28.61
45034;BMP280;30771;47.988;-4.186;2022-08-07T15:54:18;101142.16;;;28.54
45034;BMP280;30771;47.988;-4.186;2022-08-07T15:56:44;101133.03;;;28.50
45034;BMP280;30771;47.988;-4.186;2022-08-07T15:59:11;101134.28;;;28.44
45034;BMP280;30771;47.988;-4.186;2022-08-07T16:01:38;101127.13;;;28.48
45034;BMP280;30771;47.988;-4.186;2022-08-07T16:04:05;101131.00;;;28.56
45034;BMP280;30771;47.988;-4.186;2022-08-07T16:06:34;101120.78;;;28.53
45034;BMP280;30771;47.988;-4.186;2022-08-07T16:09:01;101124.13;;;28.50
45034;BMP280;30771;47.988;-4.186;2022-08-07T16:14:05;101131.53;;;28.36
45034;BMP280;30771;47.988;-4.186;2022-08-07T16:16:35;101136.72;;;28.24
45034;BMP280;30771;47.988;-4.186;2022-08-07T16:26:57;101119.56;;;28.28
45034;BMP280;30771;47.988;-4.186;2022-08-07T16:29:48;101114.78;;;28.34
45034;BMP280;30771;47.988;-4.186;2022-08-07T16:32:18;101112.22;;;28.29
45034;BMP280;30771;47.988;-4.186;2022-08-07T16:55:05;101110.41;;;28.16
45034;BMP280;30771;47.988;-4.186;2022-08-07T17:00:20;101108.25;;;28.04
45034;BMP280;30771;47.988;-4.186;2022-08-07T17:10:18;101098.41;;;28.08
45034;BMP280;30771;47.988;-4.186;2022-08-07T17:13:31;101091.59;;;28.11
45034;BMP280;30771;47.988;-4.186;2022-08-07T17:19:02;101099.16;;;28.09
45034;BMP280;30771;47.988;-4.186;2022-08-07T17:21:02;101096.19;;;27.88
45034;BMP280;30771;47.988;-4.186;2022-08-07T17:24:17;101091.13;;;27.87
45034;BMP280;30771;47.988;-4.186;2022-08-07T17:26:20;101092.56;;;27.71
45034;BMP280;30771;47.988;-4.186;2022-08-07T17:34:10;101104.81;;;27.33
45034;BMP280;30771;47.988;-4.186;2022-08-07T17:36:35;101104.03;;;27.32
45034;BMP280;30771;47.988;-4.186;2022-08-07T17:39:07;101103.09;;;27.37
45034;BMP280;30771;47.988;-4.186;2022-08-07T17:41:44;101101.81;;;27.34
45034;BMP280;30771;47.988;-4.186;2022-08-07T17:44:16;101114.84;;;27.32
45034;BMP280;30771;47.988;-4.186;2022-08-07T17:46:53;101115.28;;;27.26
45034;BMP280;30771;47.988;-4.186;2022-08-07T17:52:08;101111.94;;;27.64
45034;BMP280;30771;47.988;-4.186;2022-08-07T17:54:49;101106.97;;;27.80
45034;BMP280;30771;47.988;-4.186;2022-08-07T18:07:36;101069.63;;;32.37
45034;BMP280;30771;47.988;-4.186;2022-08-07T18:10:07;101077.69;;;32.57
45034;BMP280;30771;47.988;-4.186;2022-08-07T18:12:41;101086.56;;;32.82
45034;BMP280;30771;47.988;-4.186;2022-08-07T18:15:14;101083.00;;;33.21
45034;BMP280;30771;47.988;-4.186;2022-08-07T18:20:14;101082.50;;;34.05
45034;BMP280;30771;47.988;-4.186;2022-08-07T18:25:13;101093.78;;;34.72
45034;BMP280;30771;47.988;-4.186;2022-08-07T18:30:09;101101.69;;;34.77
45034;BMP280;30771;47.988;-4.186;2022-08-07T18:43:02;101121.81;;;34.66
45034;BMP280;30771;47.988;-4.186;2022-08-07T18:45:47;101119.56;;;34.71
45034;BMP280;30771;47.988;-4.186;2022-08-07T18:50:50;101123.19;;;34.94
45034;BMP280;30771;47.988;-4.186;2022-08-07T18:58:33;101136.47;;;34.08
45034;BMP280;30771;47.988;-4.186;2022-08-07T19:01:54;101148.19;;;33.77
45034;BMP280;30771;47.988;-4.186;2022-08-07T19:04:12;101169.44;;;32.89
45034;BMP280;30771;47.988;-4.186;2022-08-07T19:07:03;101175.31;;;31.63
45034;BMP280;30771;47.988;-4.186;2022-08-07T19:15:31;101219.97;;;27.25
45034;BMP280;30771;47.988;-4.186;2022-08-07T19:21:02;101225.31;;;26.02
45034;BMP280;30771;47.988;-4.186;2022-08-07T19:23:41;101223.16;;;25.62
45034;BMP280;30771;47.988;-4.186;2022-08-07T19:26:25;101219.34;;;25.16
45034;BMP280;30771;47.988;-4.186;2022-08-07T19:28:57;101226.38;;;24.88
45034;BMP280;30771;47.988;-4.186;2022-08-07T19:31:49;101227.97;;;24.56
45034;BMP280;30771;47.988;-4.186;2022-08-07T19:34:36;101221.44;;;24.28
45034;BMP280;30771;47.988;-4.186;2022-08-07T19:37:04;101219.44;;;24.00
45034;BMP280;30771;47.988;-4.186;2022-08-07T19:39:42;101222.78;;;23.77
45034;BMP280;30771;47.988;-4.186;2022-08-07T19:42:27;101222.88;;;23.57
45034;BMP280;30771;47.988;-4.186;2022-08-07T19:44:56;101226.97;;;23.39
45034;BMP280;30771;47.988;-4.186;2022-08-07T19:47:33;101230.22;;;23.16
45034;BMP280;30771;47.988;-4.186;2022-08-07T19:50:04;101223.50;;;22.99
45034;BMP280;30771;47.988;-4.186;2022-08-07T19:52:51;101219.22;;;22.83
45034;BMP280;30771;47.988;-4.186;2022-08-07T19:55:24;101226.44;;;22.67
45034;BMP280;30771;47.988;-4.186;2022-08-07T19:58:11;101229.41;;;22.51
45034;BMP280;30771;47.988;-4.186;2022-08-07T20:00:42;101232.56;;;22.38
45034;BMP280;30771;47.988;-4.186;2022-08-07T20:03:20;101228.25;;;22.27
45034;BMP280;30771;47.988;-4.186;2022-08-07T20:06:01;101240.03;;;22.16
45034;BMP280;30771;47.988;-4.186;2022-08-07T20:08:28;101239.44;;;22.04
45034;BMP280;30771;47.988;-4.186;2022-08-07T20:10:58;101243.97;;;21.93
45034;BMP280;30771;47.988;-4.186;2022-08-07T20:13:33;101248.19;;;21.84
45034;BMP280;30771;47.988;-4.186;2022-08-07T20:16:01;101255.41;;;21.74
45034;BMP280;30771;47.988;-4.186;2022-08-07T20:18:28;101238.69;;;21.61
45034;BMP280;30771;47.988;-4.186;2022-08-07T20:20:55;101251.78;;;21.53
45034;BMP280;30771;47.988;-4.186;2022-08-07T20:23:20;101248.75;;;21.44
45034;BMP280;30771;47.988;-4.186;2022-08-07T20:25:46;101242.81;;;21.37
45034;BMP280;30771;47.988;-4.186;2022-08-07T20:28:11;101247.84;;;21.29
45034;BMP280;30771;47.988;-4.186;2022-08-07T20:30:39;101252.84;;;21.20
45034;BMP280;30771;47.988;-4.186;2022-08-07T20:33:06;101266.47;;;21.14
45034;BMP280;30771;47.988;-4.186;2022-08-07T20:35:36;101259.72;;;21.06
45034;BMP280;30771;47.988;-4.186;2022-08-07T20:38:03;101255.63;;;20.99
45034;BMP280;30771;47.988;-4.186;2022-08-07T20:40:30;101255.31;;;20.90
45034;BMP280;30771;47.988;-4.186;2022-08-07T20:42:56;101260.03;;;20.83
45034;BMP280;30771;47.988;-4.186;2022-08-07T20:45:22;101265.59;;;20.77
45034;BMP280;30771;47.988;-4.186;2022-08-07T20:47:48;101261.00;;;20.72
45034;BMP280;30771;47.988;-4.186;2022-08-07T20:50:14;101267.59;;;20.65
45034;BMP280;30771;47.988;-4.186;2022-08-07T20:52:42;101268.34;;;20.60
45034;BMP280;30771;47.988;-4.186;2022-08-07T20:55:07;101267.75;;;20.53
45034;BMP280;30771;47.988;-4.186;2022-08-07T20:57:39;101274.91;;;20.48
45034;BMP280;30771;47.988;-4.186;2022-08-07T21:00:06;101271.63;;;20.41
45034;BMP280;30771;47.988;-4.186;2022-08-07T21:02:31;101277.72;;;20.36
45034;BMP280;30771;47.988;-4.186;2022-08-07T21:05:17;101265.59;;;20.29
45034;BMP280;30771;47.988;-4.186;2022-08-07T21:07:43;101267.38;;;20.23
45034;BMP280;30771;47.988;-4.186;2022-08-07T21:10:10;101268.94;;;20.19
45034;BMP280;30771;47.988;-4.186;2022-08-07T21:12:36;101271.53;;;20.14
45034;BMP280;30771;47.988;-4.186;2022-08-07T21:15:02;101264.50;;;20.08
45034;BMP280;30771;47.988;-4.186;2022-08-07T21:17:29;101267.34;;;20.02
45034;BMP280;30771;47.988;-4.186;2022-08-07T21:19:56;101268.91;;;19.98
45034;BMP280;30771;47.988;-4.186;2022-08-07T21:22:23;101273.13;;;19.93
45034;BMP280;30771;47.988;-4.186;2022-08-07T21:25:02;101275.50;;;19.90
45034;BMP280;30771;47.988;-4.186;2022-08-07T21:30:00;101280.69;;;19.80
45034;BMP280;30771;47.988;-4.186;2022-08-07T21:34:56;101284.50;;;19.67
45034;BMP280;30771;47.988;-4.186;2022-08-07T21:37:33;101287.09;;;19.62
45034;BMP280;30771;47.988;-4.186;2022-08-07T21:45:11;101298.09;;;19.49
45034;BMP280;30771;47.988;-4.186;2022-08-07T21:47:44;101297.78;;;19.46
45034;BMP280;30771;47.988;-4.186;2022-08-07T21:50:16;101298.50;;;19.41
45034;BMP280;30771;47.988;-4.186;2022-08-07T21:52:48;101291.19;;;19.37
45034;BMP280;30771;47.988;-4.186;2022-08-07T21:55:22;101307.75;;;19.34
